Time;durP1;ratioP1;P1;durP2;ratioP2;P2;SDS_P1;SDS_P2;PMS_P1;PMS_P2;Temp;Humidity;BMP_temperature;BMP_pressure;BME280_temperature;BME280_humidity;BME280_pressure;Samples;Min_cycle;Max_cycle;Signal;HPM_P1;HPM_P2
2022/10/23 00:01:22;;;;;;;24.58;18.02;;;;;;;;;;5076542;28;20024;-69
2022/10/23 00:03:50;;;;;;;24.45;17.75;;;;;;;;;;5076474;28;20024;-69
2022/10/23 00:06:15;;;;;;;29.42;20.67;;;;;;;;;;5076582;28;20028;-69
2022/10/23 00:08:41;;;;;;;23.88;16.30;;;;;;;;;;5076645;28;20456;-69
2022/10/23 00:11:07;;;;;;;30.95;19.30;;;;;;;;;;5076447;28;20060;-69
2022/10/23 00:13:33;;;;;;;28.48;17.98;;;;;;;;;;5075917;28;20472;-70
2022/10/23 00:15:58;;;;;;;27.88;19.23;;;;;;;;;;5076069;28;20058;-69
2022/10/23 00:18:23;;;;;;;31.20;21.70;;;;;;;;;;5076219;28;20460;-70
2022/10/23 00:20:49;;;;;;;29.70;20.15;;;;;;;;;;5074914;28;20051;-69
2022/10/23 00:23:15;;;;;;;35.03;22.23;;;;;;;;;;5075790;28;20036;-69
2022/10/23 00:25:40;;;;;;;25.75;17.70;;;;;;;;;;5076021;28;20032;-70
2022/10/23 00:28:07;;;;;;;26.58;16.17;;;;;;;;;;5075796;28;20039;-70
2022/10/23 00:30:32;;;;;;;26.10;17.25;;;;;;;;;;5075760;28;20354;-70
2022/10/23 00:32:58;;;;;;;34.72;20.80;;;;;;;;;;5076257;28;20031;-70
2022/10/23 00:35:23;;;;;;;28.27;18.05;;;;;;;;;;5074551;28;20036;-69
2022/10/23 00:37:50;;;;;;;30.30;18.75;;;;;;;;;;5075782;28;20036;-69
2022/10/23 00:40:15;;;;;;;29.25;20.77;;;;;;;;;;5074446;28;20471;-70
2022/10/23 00:42:41;;;;;;;32.08;20.33;;;;;;;;;;5075973;28;20031;-70
2022/10/23 00:45:11;;;;;;;29.85;19.75;;;;;;;;;;5075841;28;20371;-70
2022/10/23 00:47:36;;;;;;;23.75;17.13;;;;;;;;;;5075555;28;20033;-70
2022/10/23 00:50:03;;;;;;;31.95;21.65;;;;;;;;;;5075415;28;20025;-69
2022/10/23 00:52:28;;;;;;;28.58;20.88;;;;;;;;;;5075188;28;20073;-69
2022/10/23 00:54:54;;;;;;;32.17;20.10;;;;;;;;;;5075478;28;20016;-69
2022/10/23 00:57:19;;;;;;;30.80;19.77;;;;;;;;;;5075458;28;20024;-70
2022/10/23 00:59:45;;;;;;;27.80;20.15;;;;;;;;;;5074066;28;20017;-69
2022/10/23 01:02:10;;;;;;;27.05;18.50;;;;;;;;;;5074129;28;20032;-71
2022/10/23 01:04:36;;;;;;;30.85;19.90;;;;;;;;;;5073888;28;20356;-70
2022/10/23 01:07:21;;;;;;;31.20;20.63;;;;;;;;;;5073872;28;20028;-70
2022/10/23 01:10:08;;;;;;;33.20;21.15;;;;;;;;;;5075248;28;20040;-70
2022/10/23 01:12:43;;;;;;;32.90;20.88;;;;;;;;;;5075029;28;20021;-70
2022/10/23 01:15:25;;;;;;;27.75;19.02;;;;;;;;;;5073905;28;20116;-70
2022/10/23 01:17:54;;;;;;;32.03;20.58;;;;;;;;;;5073757;28;20028;-70
2022/10/23 01:20:31;;;;;;;29.08;20.15;;;;;;;;;;5073502;28;20038;-70
2022/10/23 01:23:09;;;;;;;28.25;19.30;;;;;;;;;;5073760;28;20039;-70
2022/10/23 01:25:37;;;;;;;27.98;19.58;;;;;;;;;;5073270;28;20029;-66
2022/10/23 01:28:05;;;;;;;;;;;;;;;;;;5074270;28;20443;-67
2022/10/23 01:30:32;;;;;;;27.42;19.02;;;;;;;;;;5074763;28;19912;-66
2022/10/23 01:33:24;;;;;;;27.42;19.98;;;;;;;;;;5073183;28;20013;-68
2022/10/23 01:36:01;;;;;;;31.80;21.17;;;;;;;;;;5068138;28;20409;-68
2022/10/23 01:38:47;;;;;;;32.00;21.10;;;;;;;;;;5074454;28;20101;-71
2022/10/23 01:41:20;;;;;;;28.52;19.30;;;;;;;;;;5059088;28;20134;-71
2022/10/23 01:43:53;;;;;;;30.45;21.13;;;;;;;;;;5073215;28;20051;-70
2022/10/23 01:46:20;;;;;;;30.65;20.20;;;;;;;;;;5072976;28;20032;-70
2022/10/23 01:48:50;;;;;;;32.10;21.45;;;;;;;;;;5073247;28;20025;-70
2022/10/23 01:51:16;;;;;;;32.95;22.20;;;;;;;;;;5072923;28;20395;-69
2022/10/23 01:53:45;;;;;;;29.50;21.38;;;;;;;;;;5073162;28;20108;-71
2022/10/23 01:56:17;;;;;;;31.45;20.92;;;;;;;;;;5073427;28;20058;-71
2022/10/23 01:58:45;;;;;;;30.58;21.15;;;;;;;;;;5072989;28;20353;-70
2022/10/23 02:01:12;;;;;;;29.77;21.53;;;;;;;;;;5072838;28;20021;-71
2022/10/23 02:03:47;;;;;;;31.08;20.70;;;;;;;;;;5074236;28;20046;-71
2022/10/23 02:06:14;;;;;;;28.77;20.27;;;;;;;;;;5072697;28;20029;-71
2022/10/23 02:08:39;;;;;;;33.13;21.20;;;;;;;;;;5073055;28;20024;-71
2022/10/23 02:11:11;;;;;;;29.73;20.23;;;;;;;;;;5056034;28;20032;-71
2022/10/23 02:13:49;;;;;;;29.88;20.15;;;;;;;;;;5072796;28;20032;-71
2022/10/23 02:16:22;;;;;;;30.10;20.55;;;;;;;;;;5072702;28;20032;-72
2022/10/23 02:18:57;;;;;;;28.35;19.88;;;;;;;;;;5072575;28;20028;-71
2022/10/23 02:21:31;;;;;;;28.90;19.83;;;;;;;;;;5072860;28;20032;-72
2022/10/23 02:24:02;;;;;;;34.22;21.65;;;;;;;;;;5072591;28;20138;-71
2022/10/23 02:26:37;;;;;;;31.48;20.52;;;;;;;;;;5072821;28;20131;-71
2022/10/23 02:29:18;;;;;;;27.45;20.17;;;;;;;;;;5072402;28;20024;-70
2022/10/23 02:31:44;;;;;;;27.77;20.13;;;;;;;;;;5072455;28;20032;-70
2022/10/23 02:34:10;;;;;;;28.67;20.13;;;;;;;;;;5074098;28;20039;-71
2022/10/23 02:36:36;;;;;;;31.50;20.83;;;;;;;;;;5074018;28;20021;-70
2022/10/23 02:39:02;;;;;;;26.95;20.02;;;;;;;;;;5072458;28;20021;-71
2022/10/23 02:41:37;;;;;;;30.70;18.95;;;;;;;;;;5065034;28;20093;-71
2022/10/23 02:44:10;;;;;;;30.50;20.73;;;;;;;;;;5072297;28;20025;-70
2022/10/23 02:46:36;;;;;;;26.98;19.05;;;;;;;;;;5074037;28;20024;-70
2022/10/23 02:49:01;;;;;;;28.63;20.80;;;;;;;;;;5077557;28;20516;-71
2022/10/23 02:51:35;;;;;;;30.30;19.73;;;;;;;;;;5076317;28;20048;-70
2022/10/23 02:54:07;;;;;;;28.45;20.35;;;;;;;;;;5077643;28;20029;-70
2022/10/23 02:56:36;;;;;;;26.85;17.50;;;;;;;;;;5076557;28;20482;-71
2022/10/23 02:59:16;;;;;;;28.77;20.50;;;;;;;;;;5077606;28;20031;-71
2022/10/23 03:01:50;;;;;;;27.05;19.48;;;;;;;;;;5076353;28;20028;-70
2022/10/23 03:04:17;;;;;;;30.10;19.92;;;;;;;;;;5077577;28;20119;-72
2022/10/23 03:06:42;;;;;;;29.75;19.20;;;;;;;;;;5076530;28;20027;-71
2022/10/23 03:09:13;;;;;;;27.02;19.40;;;;;;;;;;5076077;28;20127;-70
2022/10/23 03:11:39;;;;;;;27.55;19.10;;;;;;;;;;5076107;28;20120;-71
2022/10/23 03:14:04;;;;;;;24.42;16.35;;;;;;;;;;5077488;28;20345;-71
2022/10/23 03:16:30;;;;;;;28.08;20.15;;;;;;;;;;5075949;28;20028;-70
2022/10/23 03:18:55;;;;;;;27.70;19.50;;;;;;;;;;5077361;28;20053;-70
2022/10/23 03:21:21;;;;;;;28.08;19.48;;;;;;;;;;5076081;28;20036;-70
2022/10/23 03:23:51;;;;;;;25.50;19.60;;;;;;;;;;5075601;28;20066;-70
2022/10/23 03:26:22;;;;;;;27.60;19.73;;;;;;;;;;5076131;28;20391;-70
2022/10/23 03:28:49;;;;;;;28.00;19.05;;;;;;;;;;5075841;28;20041;-70
2022/10/23 03:31:16;;;;;;;22.88;16.48;;;;;;;;;;5075485;28;20468;-70
2022/10/23 03:33:44;;;;;;;25.08;17.55;;;;;;;;;;5059332;28;20031;-70
2022/10/23 03:36:10;;;;;;;28.05;18.92;;;;;;;;;;5075930;28;20027;-70
2022/10/23 03:38:36;;;;;;;25.88;18.65;;;;;;;;;;5075620;28;20028;-70
2022/10/23 03:41:03;;;;;;;26.60;18.52;;;;;;;;;;5075633;28;20074;-70
2022/10/23 03:43:28;;;;;;;26.88;18.95;;;;;;;;;;5076535;28;20394;-71
2022/10/23 03:45:55;;;;;;;28.63;19.15;;;;;;;;;;5076586;28;20032;-70
2022/10/23 03:48:23;;;;;;;26.15;18.17;;;;;;;;;;5075424;28;20028;-71
2022/10/23 03:50:49;;;;;;;25.83;17.90;;;;;;;;;;5075627;28;20409;-72
2022/10/23 03:53:14;;;;;;;26.23;17.58;;;;;;;;;;5075355;28;20118;-71
2022/10/23 03:55:40;;;;;;;26.67;17.60;;;;;;;;;;5075179;28;20016;-71
2022/10/23 03:58:05;;;;;;;26.38;19.38;;;;;;;;;;5076412;28;20031;-71
2022/10/23 04:00:30;;;;;;;25.45;18.92;;;;;;;;;;5075876;28;20066;-70
2022/10/23 04:02:59;;;;;;;26.05;18.58;;;;;;;;;;5075121;28;20029;-70
2022/10/23 04:05:24;;;;;;;24.73;18.55;;;;;;;;;;5075262;28;20464;-70
2022/10/23 04:07:53;;;;;;;27.80;19.08;;;;;;;;;;5075075;28;20024;-70
2022/10/23 04:10:19;;;;;;;24.60;17.90;;;;;;;;;;5074935;28;20464;-71
2022/10/23 04:12:44;;;;;;;25.45;18.90;;;;;;;;;;5074547;28;20021;-71
2022/10/23 04:15:11;;;;;;;26.02;18.65;;;;;;;;;;5075052;28;20066;-71
2022/10/23 04:17:36;;;;;;;25.15;17.17;;;;;;;;;;5075078;28;20020;-71
2022/10/23 04:20:04;;;;;;;24.52;17.60;;;;;;;;;;5074846;28;20020;-69
2022/10/23 04:22:29;;;;;;;23.10;17.58;;;;;;;;;;5075789;28;20059;-70
2022/10/23 04:24:54;;;;;;;23.98;17.63;;;;;;;;;;5074741;28;20456;-71
2022/10/23 04:27:21;;;;;;;25.67;17.40;;;;;;;;;;5075326;28;20104;-71
2022/10/23 04:29:48;;;;;;;24.52;17.42;;;;;;;;;;5074267;28;20024;-71
2022/10/23 04:32:13;;;;;;;25.73;18.45;;;;;;;;;;5073722;28;20028;-70
2022/10/23 04:34:42;;;;;;;26.17;18.92;;;;;;;;;;5074044;28;20155;-70
2022/10/23 04:37:07;;;;;;;25.25;18.02;;;;;;;;;;5073699;28;20052;-71
2022/10/23 04:39:32;;;;;;;24.17;17.58;;;;;;;;;;5073779;28;20013;-72
2022/10/23 04:41:58;;;;;;;23.75;17.25;;;;;;;;;;5074851;28;20468;-72
2022/10/23 04:44:24;;;;;;;27.52;19.17;;;;;;;;;;5073882;28;20025;-71
2022/10/23 04:46:49;;;;;;;23.23;18.10;;;;;;;;;;5073762;28;20035;-71
2022/10/23 04:49:15;;;;;;;26.17;18.73;;;;;;;;;;5073916;28;20032;-75
2022/10/23 04:51:48;;;;;;;26.77;19.33;;;;;;;;;;5075116;28;20024;-72
2022/10/23 04:54:36;;;;;;;28.70;19.25;;;;;;;;;;5075050;28;20578;-72
2022/10/23 04:57:21;;;;;;;26.17;18.83;;;;;;;;;;5075372;28;20426;-71
2022/10/23 04:59:57;;;;;;;27.85;18.90;;;;;;;;;;5075002;28;20028;-70
2022/10/23 05:02:23;;;;;;;27.63;19.35;;;;;;;;;;5074050;28;20034;-71
2022/10/23 05:04:49;;;;;;;27.85;19.25;;;;;;;;;;5073542;28;20044;-71
2022/10/23 05:07:38;;;;;;;29.17;19.77;;;;;;;;;;5046028;28;20083;-71
2022/10/23 05:10:24;;;;;;;31.10;19.17;;;;;;;;;;5072131;28;20375;-71
2022/10/23 05:12:56;;;;;;;28.35;19.02;;;;;;;;;;5074742;28;20099;-71
2022/10/23 05:15:21;;;;;;;29.85;18.95;;;;;;;;;;5073227;28;20116;-71
2022/10/23 05:17:49;;;;;;;29.20;19.60;;;;;;;;;;5074234;28;20017;-71
2022/10/23 05:20:18;;;;;;;31.40;19.40;;;;;;;;;;5073175;28;20029;-71
2022/10/23 05:22:52;;;;;;;30.95;20.45;;;;;;;;;;5074542;28;20376;-71
2022/10/23 05:25:22;;;;;;;32.97;21.67;;;;;;;;;;5073025;28;20085;-71
2022/10/23 05:27:52;;;;;;;32.43;20.97;;;;;;;;;;5073306;28;20102;-68
2022/10/23 05:30:18;;;;;;;32.70;21.00;;;;;;;;;;5072791;28;20037;-67
2022/10/23 05:32:45;;;;;;;31.25;20.38;;;;;;;;;;5072628;28;20106;-68
2022/10/23 05:35:14;;;;;;;30.55;20.27;;;;;;;;;;5072072;28;20025;-68
2022/10/23 05:37:45;;;;;;;30.77;20.67;;;;;;;;;;5072094;28;20031;-69
2022/10/23 05:40:17;;;;;;;30.13;20.50;;;;;;;;;;5072164;28;20082;-68
2022/10/23 05:42:43;;;;;;;32.60;20.38;;;;;;;;;;5071727;28;20037;-66
2022/10/23 05:45:10;;;;;;;28.67;19.48;;;;;;;;;;5072055;28;20067;-68
2022/10/23 05:47:57;;;;;;;30.80;19.80;;;;;;;;;;5041778;28;20036;-68
2022/10/23 05:50:45;;;;;;;27.80;18.90;;;;;;;;;;5067191;28;20041;-69
2022/10/23 05:53:23;;;;;;;32.28;20.50;;;;;;;;;;5072022;28;20158;-68
2022/10/23 05:55:56;;;;;;;32.47;20.83;;;;;;;;;;5070863;28;20123;-68
2022/10/23 05:58:40;;;;;;;31.25;19.75;;;;;;;;;;5072187;28;20138;-67
2022/10/23 06:01:24;;;;;;;30.45;20.42;;;;;;;;;;5072301;28;20597;-67
2022/10/23 06:03:57;;;;;;;27.85;20.13;;;;;;;;;;5070650;28;20020;-69
2022/10/23 06:06:29;;;;;;;33.30;21.05;;;;;;;;;;5072026;28;20032;-68
2022/10/23 06:08:55;;;;;;;32.60;19.92;;;;;;;;;;5071657;28;20527;-67
2022/10/23 06:11:20;;;;;;;33.75;21.38;;;;;;;;;;5071531;28;20016;-68
2022/10/23 06:13:55;;;;;;;29.35;19.08;;;;;;;;;;5073189;28;20052;-66
2022/10/23 06:16:24;;;;;;;32.20;21.08;;;;;;;;;;5073016;28;20024;-71
2022/10/23 06:18:49;;;;;;;31.48;20.58;;;;;;;;;;5071509;28;20486;-71
2022/10/23 06:21:16;;;;;;;34.95;21.85;;;;;;;;;;5071279;28;20551;-70
2022/10/23 06:23:44;;;;;;;32.25;21.70;;;;;;;;;;5071543;28;20020;-71
2022/10/23 06:26:28;;;;;;;30.50;20.75;;;;;;;;;;5071350;28;20388;-70
2022/10/23 06:28:59;;;;;;;32.28;20.42;;;;;;;;;;5071412;28;20032;-70
2022/10/23 06:31:28;;;;;;;32.28;21.30;;;;;;;;;;5071064;28;20128;-70
2022/10/23 06:33:59;;;;;;;30.25;19.55;;;;;;;;;;5071427;28;20023;-70
2022/10/23 06:36:25;;;;;;;;;;;;;;;;;;5071816;28;20024;-70
2022/10/23 06:38:55;;;;;;;28.90;18.55;;;;;;;;;;5071928;28;19916;-71
2022/10/23 06:41:26;;;;;;;28.33;19.38;;;;;;;;;;5075331;28;20020;-70
2022/10/23 06:43:54;;;;;;;27.85;17.77;;;;;;;;;;5057994;28;20177;-71
2022/10/23 06:46:20;;;;;;;26.85;17.23;;;;;;;;;;5092792;28;20031;-70
2022/10/23 06:49:05;;;;;;;28.48;19.38;;;;;;;;;;5093028;28;20035;-71
2022/10/23 06:51:37;;;;;;;29.33;19.35;;;;;;;;;;5073726;28;20536;-70
2022/10/23 06:54:04;;;;;;;29.10;19.48;;;;;;;;;;5074165;28;20028;-71
2022/10/23 06:56:48;;;;;;;28.67;19.20;;;;;;;;;;5092618;28;20088;-70
2022/10/23 06:59:18;;;;;;;31.33;20.35;;;;;;;;;;5074343;28;20027;-70
2022/10/23 07:01:44;;;;;;;33.58;22.65;;;;;;;;;;5074233;28;20423;-71
2022/10/23 07:04:12;;;;;;;32.50;22.15;;;;;;;;;;5074185;28;20514;-70
2022/10/23 07:06:38;;;;;;;27.05;19.02;;;;;;;;;;5074207;28;20475;-70
2022/10/23 07:09:05;;;;;;;27.40;17.88;;;;;;;;;;5074267;28;20020;-70
2022/10/23 07:12:08;;;;;;;31.88;20.85;;;;;;;;;;5010141;28;20517;-71
2022/10/23 07:14:43;;;;;;;35.30;23.17;;;;;;;;;;5026632;28;20068;-71
2022/10/23 07:17:10;;;;;;;38.22;24.58;;;;;;;;;;5045834;28;20036;-71
2022/10/23 07:19:38;;;;;;;31.17;20.42;;;;;;;;;;5092476;28;20016;-71
2022/10/23 07:22:09;;;;;;;29.73;19.17;;;;;;;;;;5074223;28;20446;-71
2022/10/23 07:25:02;;;;;;;28.98;18.55;;;;;;;;;;5074211;28;20535;-71
2022/10/23 07:27:36;;;;;;;34.00;19.33;;;;;;;;;;5073862;28;20036;-71
2022/10/23 07:30:02;;;;;;;28.85;18.98;;;;;;;;;;5074073;28;20024;-71
2022/10/23 07:32:33;;;;;;;26.73;17.70;;;;;;;;;;5073924;28;20023;-71
2022/10/23 07:35:17;;;;;;;25.35;17.00;;;;;;;;;;5095935;28;20035;-72
2022/10/23 07:38:01;;;;;;;20.90;14.30;;;;;;;;;;5096091;28;20046;-72
2022/10/23 07:40:30;;;;;;;24.40;16.70;;;;;;;;;;5073993;28;20126;-72
2022/10/23 07:42:56;;;;;;;27.55;18.90;;;;;;;;;;5074442;28;20071;-71
2022/10/23 07:45:24;;;;;;;27.23;18.17;;;;;;;;;;5074165;28;20032;-71
2022/10/23 07:47:51;;;;;;;29.23;19.85;;;;;;;;;;5073863;28;20107;-71
2022/10/23 07:50:19;;;;;;;29.38;18.58;;;;;;;;;;5074301;28;20051;-71
2022/10/23 07:52:45;;;;;;;28.42;20.35;;;;;;;;;;5073962;28;20021;-71
2022/10/23 07:55:17;;;;;;;37.55;27.05;;;;;;;;;;5073862;28;20025;-71
2022/10/23 07:57:47;;;;;;;37.33;27.38;;;;;;;;;;5075192;28;20032;-71
2022/10/23 08:00:25;;;;;;;14.70;11.15;;;;;;;;;;5073856;28;20028;-71
2022/10/23 08:02:58;;;;;;;21.20;13.40;;;;;;;;;;5074054;28;20033;-71
2022/10/23 08:05:23;;;;;;;21.13;14.52;;;;;;;;;;5057136;28;20036;-72
2022/10/23 08:07:58;;;;;;;18.13;12.48;;;;;;;;;;5074376;28;20016;-71
2022/10/23 08:10:24;;;;;;;18.27;12.57;;;;;;;;;;5074616;28;20435;-71
2022/10/23 08:12:50;;;;;;;17.83;13.55;;;;;;;;;;5057688;28;20082;-70
2022/10/23 08:15:19;;;;;;;17.83;12.73;;;;;;;;;;5074361;28;20154;-71
2022/10/23 08:17:55;;;;;;;19.73;13.60;;;;;;;;;;5074509;28;20460;-71
2022/10/23 08:20:37;;;;;;;25.50;16.77;;;;;;;;;;5075355;28;20423;-68
2022/10/23 08:23:04;;;;;;;24.58;16.13;;;;;;;;;;5073869;28;20553;-69
2022/10/23 08:25:29;;;;;;;21.27;15.77;;;;;;;;;;5073734;28;20024;-70
2022/10/23 08:27:55;;;;;;;15.52;11.23;;;;;;;;;;5073402;28;20116;-69
2022/10/23 08:30:21;;;;;;;14.35;11.07;;;;;;;;;;5073079;28;20022;-73
2022/10/23 08:32:48;;;;;;;20.23;12.25;;;;;;;;;;5073490;28;20055;-73
2022/10/23 08:35:14;;;;;;;14.07;9.90;;;;;;;;;;5073501;28;20020;-73
2022/10/23 08:37:41;;;;;;;14.75;10.20;;;;;;;;;;5074484;28;20037;-73
2022/10/23 08:40:20;;;;;;;14.73;10.25;;;;;;;;;;5073051;28;20088;-73
2022/10/23 08:43:23;;;;;;;16.60;12.18;;;;;;;;;;5050586;28;20071;-73
2022/10/23 08:46:07;;;;;;;14.13;9.63;;;;;;;;;;5073257;28;20384;-73
2022/10/23 08:49:12;;;;;;;15.48;11.48;;;;;;;;;;5074586;28;20043;-73
2022/10/23 08:51:50;;;;;;;15.07;10.82;;;;;;;;;;5029115;28;20048;-73
2022/10/23 08:54:20;;;;;;;20.38;13.32;;;;;;;;;;5073243;28;20028;-67
2022/10/23 08:56:50;;;;;;;19.08;11.27;;;;;;;;;;5074077;28;20023;-67
2022/10/23 08:59:23;;;;;;;17.27;10.85;;;;;;;;;;5073974;28;20032;-67
2022/10/23 09:01:53;;;;;;;16.30;12.02;;;;;;;;;;5072791;28;20063;-68
2022/10/23 09:04:19;;;;;;;18.85;12.98;;;;;;;;;;5074124;28;20491;-67
2022/10/23 09:07:00;;;;;;;17.20;13.32;;;;;;;;;;5074014;28;20037;-67
2022/10/23 09:09:31;;;;;;;23.35;15.00;;;;;;;;;;5073914;28;20028;-67
2022/10/23 09:12:09;;;;;;;14.55;10.73;;;;;;;;;;5073996;28;20032;-72
2022/10/23 09:14:35;;;;;;;15.23;11.10;;;;;;;;;;5073914;28;20411;-74
2022/10/23 09:17:23;;;;;;;17.20;11.68;;;;;;;;;;5073522;28;20525;-73
2022/10/23 09:19:52;;;;;;;14.13;10.35;;;;;;;;;;5072289;28;20017;-72
2022/10/23 09:22:18;;;;;;;19.13;13.20;;;;;;;;;;5072366;28;20023;-72
2022/10/23 09:24:43;;;;;;;17.77;11.65;;;;;;;;;;5073571;28;20025;-72
2022/10/23 09:27:13;;;;;;;18.80;12.43;;;;;;;;;;5072548;28;20023;-72
2022/10/23 09:29:45;;;;;;;15.35;11.60;;;;;;;;;;5072510;28;20392;-73
2022/10/23 09:32:11;;;;;;;14.60;10.38;;;;;;;;;;5073224;28;20028;-73
2022/10/23 09:34:48;;;;;;;13.82;9.50;;;;;;;;;;5073504;28;20103;-73
2022/10/23 09:37:24;;;;;;;15.93;11.13;;;;;;;;;;5073546;28;20483;-72
2022/10/23 09:40:10;;;;;;;19.10;11.05;;;;;;;;;;5083770;28;20040;-72
2022/10/23 09:42:36;;;;;;;15.50;10.90;;;;;;;;;;5092955;28;20162;-72
2022/10/23 09:45:01;;;;;;;13.63;10.57;;;;;;;;;;5093253;28;20551;-70
2022/10/23 09:47:27;;;;;;;15.20;9.55;;;;;;;;;;5075393;28;20042;-71
2022/10/23 09:49:53;;;;;;;16.20;10.30;;;;;;;;;;5093291;28;20018;-70
2022/10/23 09:52:35;;;;;;;13.63;9.77;;;;;;;;;;5075520;28;20022;-71
2022/10/23 09:55:02;;;;;;;14.13;9.20;;;;;;;;;;5093280;28;20043;-73
2022/10/23 09:57:30;;;;;;;14.32;9.90;;;;;;;;;;5092726;28;20020;-71
2022/10/23 10:00:06;;;;;;;12.50;8.95;;;;;;;;;;5090674;28;20035;-72
2022/10/23 10:02:37;;;;;;;12.65;8.73;;;;;;;;;;5093013;28;20028;-71
2022/10/23 10:05:41;;;;;;;12.43;9.45;;;;;;;;;;5070588;28;20032;-73
2022/10/23 10:08:21;;;;;;;12.55;8.02;;;;;;;;;;5061419;28;20024;-72
2022/10/23 10:11:08;;;;;;;10.30;8.23;;;;;;;;;;5094542;28;20028;-72
2022/10/23 10:13:36;;;;;;;13.55;8.38;;;;;;;;;;5092517;28;20032;-73
2022/10/23 10:16:14;;;;;;;11.93;9.10;;;;;;;;;;5093799;28;20016;-72
2022/10/23 10:18:58;;;;;;;10.00;7.07;;;;;;;;;;5092080;28;20028;-72
2022/10/23 10:21:27;;;;;;;13.27;8.70;;;;;;;;;;5091887;28;20059;-72
2022/10/23 10:24:04;;;;;;;10.38;7.97;;;;;;;;;;5073559;28;20012;-73
2022/10/23 10:26:57;;;;;;;10.80;8.57;;;;;;;;;;5091909;28;20032;-72
2022/10/23 10:29:37;;;;;;;10.45;7.60;;;;;;;;;;5053793;28;20043;-72
2022/10/23 10:32:23;;;;;;;11.15;7.57;;;;;;;;;;5091646;28;20052;-72
2022/10/23 10:34:48;;;;;;;10.52;8.45;;;;;;;;;;5091762;28;20440;-73
2022/10/23 10:37:14;;;;;;;8.15;6.65;;;;;;;;;;5074140;28;20099;-72
2022/10/23 10:39:43;;;;;;;11.30;7.03;;;;;;;;;;5091507;28;20530;-73
2022/10/23 10:42:27;;;;;;;8.43;6.47;;;;;;;;;;5073332;28;20440;-73
2022/10/23 10:45:03;;;;;;;9.23;5.93;;;;;;;;;;5091603;28;20044;-72
2022/10/23 10:47:50;;;;;;;7.85;6.63;;;;;;;;;;5091544;28;20439;-73
2022/10/23 10:50:50;;;;;;;8.55;6.80;;;;;;;;;;5027164;28;20046;-73
2022/10/23 10:53:19;;;;;;;7.57;6.30;;;;;;;;;;5056225;28;20085;-66
2022/10/23 10:55:55;;;;;;;7.53;6.13;;;;;;;;;;5093377;28;20375;-66
2022/10/23 10:58:27;;;;;;;9.05;7.78;;;;;;;;;;5093529;28;20423;-72
2022/10/23 11:01:02;;;;;;;11.13;7.57;;;;;;;;;;5093366;28;20028;-72
2022/10/23 11:03:27;;;;;;;8.82;7.32;;;;;;;;;;5075248;28;20039;-72
2022/10/23 11:05:54;;;;;;;6.70;5.70;;;;;;;;;;5093303;28;20020;-73
2022/10/23 11:08:29;;;;;;;8.57;6.57;;;;;;;;;;5096382;28;20062;-72
2022/10/23 11:10:57;;;;;;;8.80;6.68;;;;;;;;;;5097230;28;20528;-72
2022/10/23 11:13:27;;;;;;;8.40;7.07;;;;;;;;;;5076933;28;20020;-72
2022/10/23 11:15:54;;;;;;;;;;;;;;;;;;5097743;28;20425;-66
2022/10/23 11:18:23;;;;;;;9.32;7.95;;;;;;;;;;5096177;28;19904;-66
2022/10/23 11:21:08;;;;;;;7.18;6.20;;;;;;;;;;5097081;28;20024;-67
2022/10/23 11:23:45;;;;;;;9.25;7.32;;;;;;;;;;5095902;28;20044;-67
2022/10/23 11:26:25;;;;;;;8.00;6.75;;;;;;;;;;5096950;28;20063;-66
2022/10/23 11:29:11;;;;;;;7.07;6.40;;;;;;;;;;5097110;28;20116;-67
2022/10/23 11:31:38;;;;;;;6.32;5.70;;;;;;;;;;5096141;28;20036;-66
2022/10/23 11:34:07;;;;;;;6.20;5.15;;;;;;;;;;5096976;28;20013;-66
2022/10/23 11:36:51;;;;;;;5.38;4.75;;;;;;;;;;5096921;28;20384;-68
2022/10/23 11:39:22;;;;;;;6.38;4.97;;;;;;;;;;5096352;28;20040;-68
2022/10/23 11:41:52;;;;;;;6.38;5.20;;;;;;;;;;5096802;28;20036;-67
2022/10/23 11:44:17;;;;;;;;;;;;;;;;;;5097256;28;20035;-67
2022/10/23 11:46:43;;;;;;;4.53;4.10;;;;;;;;;;5096671;28;19911;-67
2022/10/23 11:49:19;;;;;;;9.50;6.25;;;;;;;;;;5096631;28;20494;-68
2022/10/23 11:51:44;;;;;;;6.85;5.75;;;;;;;;;;5096481;28;20032;-68
2022/10/23 11:54:15;;;;;;;6.03;5.22;;;;;;;;;;5096567;28;20107;-67
2022/10/23 11:56:53;;;;;;;6.65;5.45;;;;;;;;;;5096519;28;20032;-67
2022/10/23 11:59:22;;;;;;;5.25;4.75;;;;;;;;;;5078333;28;20069;-66
2022/10/23 12:01:49;;;;;;;6.30;5.10;;;;;;;;;;5096431;28;20028;-66
2022/10/23 12:04:24;;;;;;;5.72;5.22;;;;;;;;;;5078238;28;20028;-68
2022/10/23 12:06:54;;;;;;;6.20;5.13;;;;;;;;;;5096380;28;20055;-68
2022/10/23 12:09:40;;;;;;;6.20;5.55;;;;;;;;;;5096513;28;20530;-67
2022/10/23 12:12:14;;;;;;;5.53;4.72;;;;;;;;;;5096072;28;20032;-68
2022/10/23 12:14:47;;;;;;;6.05;5.20;;;;;;;;;;5096126;28;20036;-66
2022/10/23 12:17:22;;;;;;;6.88;5.60;;;;;;;;;;5096090;28;20035;-67
2022/10/23 12:19:52;;;;;;;6.72;4.80;;;;;;;;;;5095547;28;20479;-68
2022/10/23 12:22:19;;;;;;;8.18;6.15;;;;;;;;;;5096033;28;20032;-66
2022/10/23 12:24:55;;;;;;;6.82;5.35;;;;;;;;;;5096029;28;20016;-67
2022/10/23 12:27:28;;;;;;;6.10;5.50;;;;;;;;;;5077747;28;20031;-67
2022/10/23 12:29:55;;;;;;;7.10;5.18;;;;;;;;;;5077622;28;20070;-67
2022/10/23 12:32:32;;;;;;;4.87;4.37;;;;;;;;;;5095873;28;20016;-66
2022/10/23 12:35:05;;;;;;;5.78;5.20;;;;;;;;;;5077772;28;20270;-68
2022/10/23 12:37:43;;;;;;;4.28;3.92;;;;;;;;;;5095738;28;20020;-68
2022/10/23 12:40:09;;;;;;;5.32;4.72;;;;;;;;;;5095313;28;20055;-67
2022/10/23 12:42:35;;;;;;;5.05;4.55;;;;;;;;;;5095617;28;20106;-66
2022/10/23 12:45:02;;;;;;;4.88;4.38;;;;;;;;;;5095577;28;20042;-67
2022/10/23 12:47:29;;;;;;;5.00;4.22;;;;;;;;;;5077641;28;20055;-67
2022/10/23 12:49:54;;;;;;;5.53;4.15;;;;;;;;;;5077208;28;20036;-67
2022/10/23 12:52:23;;;;;;;6.15;5.32;;;;;;;;;;5077236;28;20375;-67
2022/10/23 12:54:49;;;;;;;4.75;4.25;;;;;;;;;;5068962;23;20054;-72
2022/10/23 12:57:26;;;;;;;5.00;4.32;;;;;;;;;;4997814;28;20033;-73
2022/10/23 12:59:57;;;;;;;5.05;4.00;;;;;;;;;;4997975;28;20037;-72
2022/10/23 13:02:24;;;;;;;3.60;3.30;;;;;;;;;;5015385;28;20036;-72
2022/10/23 13:04:52;;;;;;;3.53;3.30;;;;;;;;;;5024593;22;20043;-72
2022/10/23 13:07:19;;;;;;;3.75;3.22;;;;;;;;;;4976332;28;20023;-73
2022/10/23 13:09:44;;;;;;;4.72;3.67;;;;;;;;;;4974939;28;20014;-72
2022/10/23 13:12:27;;;;;;;3.83;3.40;;;;;;;;;;5007618;28;20038;-72
2022/10/23 13:15:12;;;;;;;4.65;3.60;;;;;;;;;;4975005;28;20122;-72
2022/10/23 13:17:58;;;;;;;2.95;2.80;;;;;;;;;;4974934;28;20110;-72
2022/10/23 13:20:25;;;;;;;5.40;3.45;;;;;;;;;;4975989;28;20038;-73
2022/10/23 13:22:59;;;;;;;4.80;3.80;;;;;;;;;;4976045;28;20030;-72
2022/10/23 13:25:28;;;;;;;4.90;4.43;;;;;;;;;;4975965;28;20030;-72
2022/10/23 13:28:06;;;;;;;3.80;3.50;;;;;;;;;;4976043;28;20038;-72
2022/10/23 13:30:32;;;;;;;3.83;3.28;;;;;;;;;;4974934;28;20027;-73
2022/10/23 13:32:58;;;;;;;3.92;3.63;;;;;;;;;;4975912;28;20026;-72
2022/10/23 13:35:24;;;;;;;3.55;3.25;;;;;;;;;;4975683;28;20035;-72
2022/10/23 13:37:50;;;;;;;3.90;3.47;;;;;;;;;;4974732;28;20019;-72
2022/10/23 13:40:25;;;;;;;3.38;3.08;;;;;;;;;;4974813;28;20138;-73
2022/10/23 13:42:52;;;;;;;3.92;3.53;;;;;;;;;;4975559;28;20027;-73
2022/10/23 13:45:19;;;;;;;3.80;3.50;;;;;;;;;;5006833;28;20031;-72
2022/10/23 13:47:45;;;;;;;4.18;3.55;;;;;;;;;;4975584;28;20494;-72
2022/10/23 13:50:11;;;;;;;4.10;3.72;;;;;;;;;;4998391;23;20132;-73
2022/10/23 13:52:36;;;;;;;3.97;3.30;;;;;;;;;;5013334;28;20052;-72
2022/10/23 13:55:17;;;;;;;4.15;3.50;;;;;;;;;;5014698;28;20022;-73
2022/10/23 13:57:42;;;;;;;4.20;3.90;;;;;;;;;;5014496;28;20112;-72
2022/10/23 14:00:09;;;;;;;4.75;4.32;;;;;;;;;;5014635;28;20076;-72
2022/10/23 14:02:37;;;;;;;4.43;4.03;;;;;;;;;;5020762;23;20056;-73
2022/10/23 14:05:03;;;;;;;5.07;4.22;;;;;;;;;;5054108;23;20050;-73
2022/10/23 14:07:28;;;;;;;4.10;3.80;;;;;;;;;;5033502;28;20032;-67
2022/10/23 14:09:54;;;;;;;4.13;3.78;;;;;;;;;;5033832;28;20096;-67
2022/10/23 14:12:19;;;;;;;4.45;3.70;;;;;;;;;;5016172;28;20128;-68
2022/10/23 14:14:49;;;;;;;5.00;4.47;;;;;;;;;;5033818;28;20044;-67
2022/10/23 14:17:15;;;;;;;6.97;5.25;;;;;;;;;;5033799;28;20487;-66
2022/10/23 14:19:41;;;;;;;5.07;4.15;;;;;;;;;;4999780;28;20021;-66
2022/10/23 14:22:07;;;;;;;4.53;4.13;;;;;;;;;;5033685;28;20095;-66
2022/10/23 14:24:32;;;;;;;6.70;3.97;;;;;;;;;;5049094;28;20022;-66
2022/10/23 14:26:58;;;;;;;6.28;4.20;;;;;;;;;;5015942;28;20091;-67
2022/10/23 14:29:23;;;;;;;6.47;4.57;;;;;;;;;;5033628;28;20108;-67
2022/10/23 14:31:49;;;;;;;5.63;4.55;;;;;;;;;;5049083;28;20071;-66
2022/10/23 14:34:14;;;;;;;4.55;4.13;;;;;;;;;;5033535;28;20461;-68
2022/10/23 14:36:40;;;;;;;5.95;4.60;;;;;;;;;;5033519;28;20026;-67
2022/10/23 14:39:05;;;;;;;5.47;4.88;;;;;;;;;;5033492;28;20100;-66
2022/10/23 14:41:30;;;;;;;6.15;4.82;;;;;;;;;;5033288;28;20066;-66
2022/10/23 14:43:56;;;;;;;7.57;5.15;;;;;;;;;;5033436;28;20022;-67
2022/10/23 14:46:22;;;;;;;7.85;5.53;;;;;;;;;;5033615;28;20477;-72
2022/10/23 14:48:47;;;;;;;9.07;5.78;;;;;;;;;;5033600;28;20025;-67